sensor_id;sensor_type;location;lat;lon;timestamp;temperature;humidity
40257;DHT22;25977;45.462;9.210;2023-11-19T00:00:27;13.00;78.70
40257;DHT22;25977;45.462;9.210;2023-11-19T00:02:53;13.00;79.20
40257;DHT22;25977;45.462;9.210;2023-11-19T00:05:19;13.30;79.30
40257;DHT22;25977;45.462;9.210;2023-11-19T00:07:45;13.50;79.40
40257;DHT22;25977;45.462;9.210;2023-11-19T00:10:13;13.10;79.00
40257;DHT22;25977;45.462;9.210;2023-11-19T00:12:43;13.30;79.20
40257;DHT22;25977;45.462;9.210;2023-11-19T00:15:13;13.10;79.20
40257;DHT22;25977;45.462;9.210;2023-11-19T00:17:43;12.90;79.00
40257;DHT22;25977;45.462;9.210;2023-11-19T00:20:17;13.00;79.20
40257;DHT22;25977;45.462;9.210;2023-11-19T00:22:43;13.00;79.20
40257;DHT22;25977;45.462;9.210;2023-11-19T00:25:09;13.10;79.10
40257;DHT22;25977;45.462;9.210;2023-11-19T00:27:36;13.00;78.80
40257;DHT22;25977;45.462;9.210;2023-11-19T00:30:06;13.50;79.00
40257;DHT22;25977;45.462;9.210;2023-11-19T00:32:33;13.00;78.30
40257;DHT22;25977;45.462;9.210;2023-11-19T00:34:59;13.20;78.30
40257;DHT22;25977;45.462;9.210;2023-11-19T00:37:25;12.70;85.10
40257;DHT22;25977;45.462;9.210;2023-11-19T00:39:51;12.90;78.30
40257;DHT22;25977;45.462;9.210;2023-11-19T00:42:17;13.70;78.90
40257;DHT22;25977;45.462;9.210;2023-11-19T00:47:09;13.20;86.00
40257;DHT22;25977;45.462;9.210;2023-11-19T00:54:28;12.90;86.70
40257;DHT22;25977;45.462;9.210;2023-11-19T00:56:53;13.10;86.80
40257;DHT22;25977;45.462;9.210;2023-11-19T01:04:19;12.90;78.60
40257;DHT22;25977;45.462;9.210;2023-11-19T01:06:45;13.10;87.70
40257;DHT22;25977;45.462;9.210;2023-11-19T01:09:11;13.00;87.50
40257;DHT22;25977;45.462;9.210;2023-11-19T01:11:37;12.60;87.50
40257;DHT22;25977;45.462;9.210;2023-11-19T01:14:02;12.90;87.10
40257;DHT22;25977;45.462;9.210;2023-11-19T01:16:28;12.50;86.80
40257;DHT22;25977;45.462;9.210;2023-11-19T01:21:21;12.70;86.90
40257;DHT22;25977;45.462;9.210;2023-11-19T01:28:40;12.90;87.20
40257;DHT22;25977;45.462;9.210;2023-11-19T01:33:38;12.70;78.70
40257;DHT22;25977;45.462;9.210;2023-11-19T01:36:05;14.20;79.90
40257;DHT22;25977;45.462;9.210;2023-11-19T01:38:32;13.00;86.50
40257;DHT22;25977;45.462;9.210;2023-11-19T01:40:58;12.60;86.80
40257;DHT22;25977;45.462;9.210;2023-11-19T01:43:37;12.70;78.80
40257;DHT22;25977;45.462;9.210;2023-11-19T01:46:05;12.70;87.20
40257;DHT22;25977;45.462;9.210;2023-11-19T01:48:34;12.70;78.80
40257;DHT22;25977;45.462;9.210;2023-11-19T01:51:02;12.60;78.80
40257;DHT22;25977;45.462;9.210;2023-11-19T01:53:29;12.60;78.90
40257;DHT22;25977;45.462;9.210;2023-11-19T01:55:57;12.30;83.70
40257;DHT22;25977;45.462;9.210;2023-11-19T01:58:23;12.50;87.70
40257;DHT22;25977;45.462;9.210;2023-11-19T02:00:49;12.70;87.50
40257;DHT22;25977;45.462;9.210;2023-11-19T02:03:15;12.50;87.50
40257;DHT22;25977;45.462;9.210;2023-11-19T02:05:41;12.80;87.60
40257;DHT22;25977;45.462;9.210;2023-11-19T02:10:33;12.50;78.60
40257;DHT22;25977;45.462;9.210;2023-11-19T02:13:01;12.50;78.30
40257;DHT22;25977;45.462;9.210;2023-11-19T02:15:26;12.80;85.00
40257;DHT22;25977;45.462;9.210;2023-11-19T02:17:52;12.60;85.20
40257;DHT22;25977;45.462;9.210;2023-11-19T02:20:18;12.40;85.50
40257;DHT22;25977;45.462;9.210;2023-11-19T02:22:48;12.50;78.20
40257;DHT22;25977;45.462;9.210;2023-11-19T02:25:30;12.30;85.50
40257;DHT22;25977;45.462;9.210;2023-11-19T02:28:02;12.20;86.10
40257;DHT22;25977;45.462;9.210;2023-11-19T02:32:58;12.40;77.40
40257;DHT22;25977;45.462;9.210;2023-11-19T02:35:27;12.40;77.20
40257;DHT22;25977;45.462;9.210;2023-11-19T02:37:56;12.60;86.20
40257;DHT22;25977;45.462;9.210;2023-11-19T02:40:22;12.40;85.80
40257;DHT22;25977;45.462;9.210;2023-11-19T02:45:16;12.60;80.80
40257;DHT22;25977;45.462;9.210;2023-11-19T02:47:42;12.20;86.20
40257;DHT22;25977;45.462;9.210;2023-11-19T02:50:10;12.80;79.90
40257;DHT22;25977;45.462;9.210;2023-11-19T02:52:44;12.40;77.50
40257;DHT22;25977;45.462;9.210;2023-11-19T02:55:11;12.10;77.20
40257;DHT22;25977;45.462;9.210;2023-11-19T02:57:40;12.30;83.80
40257;DHT22;25977;45.462;9.210;2023-11-19T03:00:21;12.10;85.90
40257;DHT22;25977;45.462;9.210;2023-11-19T03:02:57;12.60;84.20
40257;DHT22;25977;45.462;9.210;2023-11-19T03:05:35;12.50;86.50
40257;DHT22;25977;45.462;9.210;2023-11-19T03:08:01;12.40;86.50
40257;DHT22;25977;45.462;9.210;2023-11-19T03:10:26;12.10;86.30
40257;DHT22;25977;45.462;9.210;2023-11-19T03:12:52;12.40;86.40
40257;DHT22;25977;45.462;9.210;2023-11-19T03:15:18;12.10;83.20
40257;DHT22;25977;45.462;9.210;2023-11-19T03:20:11;12.60;86.40
40257;DHT22;25977;45.462;9.210;2023-11-19T03:22:41;12.60;77.60
40257;DHT22;25977;45.462;9.210;2023-11-19T03:25:10;12.30;86.10
40257;DHT22;25977;45.462;9.210;2023-11-19T03:27:39;12.20;86.60
40257;DHT22;25977;45.462;9.210;2023-11-19T03:30:05;12.50;87.00
40257;DHT22;25977;45.462;9.210;2023-11-19T03:32:32;12.30;77.80
40257;DHT22;25977;45.462;9.210;2023-11-19T03:37:27;12.10;86.30
40257;DHT22;25977;45.462;9.210;2023-11-19T03:39:57;12.60;86.80
40257;DHT22;25977;45.462;9.210;2023-11-19T03:42:26;12.10;81.70
40257;DHT22;25977;45.462;9.210;2023-11-19T03:47:19;12.60;87.20
40257;DHT22;25977;45.462;9.210;2023-11-19T03:49:51;12.30;78.10
40257;DHT22;25977;45.462;9.210;2023-11-19T03:52:17;12.30;87.20
40257;DHT22;25977;45.462;9.210;2023-11-19T03:57:09;12.40;87.80
40257;DHT22;25977;45.462;9.210;2023-11-19T03:59:38;12.30;87.80
40257;DHT22;25977;45.462;9.210;2023-11-19T04:04:30;11.90;87.90
40257;DHT22;25977;45.462;9.210;2023-11-19T04:06:56;12.00;83.70
40257;DHT22;25977;45.462;9.210;2023-11-19T04:09:22;12.40;88.30
40257;DHT22;25977;45.462;9.210;2023-11-19T04:16:41;12.20;79.60
40257;DHT22;25977;45.462;9.210;2023-11-19T04:19:06;12.50;82.40
40257;DHT22;25977;45.462;9.210;2023-11-19T04:23:58;12.50;89.60
40257;DHT22;25977;45.462;9.210;2023-11-19T04:26:24;12.00;89.20
40257;DHT22;25977;45.462;9.210;2023-11-19T04:28:50;12.00;89.20
40257;DHT22;25977;45.462;9.210;2023-11-19T04:31:19;12.50;85.80
40257;DHT22;25977;45.462;9.210;2023-11-19T04:33:45;12.10;87.10
40257;DHT22;25977;45.462;9.210;2023-11-19T04:36:11;11.90;88.00
40257;DHT22;25977;45.462;9.210;2023-11-19T04:38:37;12.00;81.00
40257;DHT22;25977;45.462;9.210;2023-11-19T04:41:05;12.10;80.30
40257;DHT22;25977;45.462;9.210;2023-11-19T04:43:32;12.20;89.60
40257;DHT22;25977;45.462;9.210;2023-11-19T04:45:58;11.80;88.70
40257;DHT22;25977;45.462;9.210;2023-11-19T04:48:24;12.00;89.90
40257;DHT22;25977;45.462;9.210;2023-11-19T04:53:18;12.20;90.00
40257;DHT22;25977;45.462;9.210;2023-11-19T04:55:43;12.30;90.00
40257;DHT22;25977;45.462;9.210;2023-11-19T05:03:01;12.00;81.50
40257;DHT22;25977;45.462;9.210;2023-11-19T05:05:27;12.20;90.10
40257;DHT22;25977;45.462;9.210;2023-11-19T05:10:18;12.20;90.50
40257;DHT22;25977;45.462;9.210;2023-11-19T05:12:44;11.90;90.50
40257;DHT22;25977;45.462;9.210;2023-11-19T05:20:05;12.00;82.60
40257;DHT22;25977;45.462;9.210;2023-11-19T05:22:42;12.20;90.60
40257;DHT22;25977;45.462;9.210;2023-11-19T05:25:08;11.80;88.60
40257;DHT22;25977;45.462;9.210;2023-11-19T05:30:05;11.30;82.40
40257;DHT22;25977;45.462;9.210;2023-11-19T05:37:28;12.30;90.90
40257;DHT22;25977;45.462;9.210;2023-11-19T05:39:53;12.00;90.80
40257;DHT22;25977;45.462;9.210;2023-11-19T05:42:19;12.10;90.80
40257;DHT22;25977;45.462;9.210;2023-11-19T05:44:45;11.90;90.50
40257;DHT22;25977;45.462;9.210;2023-11-19T05:49:36;12.20;90.40
40257;DHT22;25977;45.462;9.210;2023-11-19T05:54:28;12.00;90.80
40257;DHT22;25977;45.462;9.210;2023-11-19T05:59:20;11.80;90.90
40257;DHT22;25977;45.462;9.210;2023-11-19T06:01:48;12.00;83.70
40257;DHT22;25977;45.462;9.210;2023-11-19T06:06:40;11.80;91.20
40257;DHT22;25977;45.462;9.210;2023-11-19T06:09:06;12.00;87.80
40257;DHT22;25977;45.462;9.210;2023-11-19T06:11:35;11.70;91.30
40257;DHT22;25977;45.462;9.210;2023-11-19T06:14:01;12.00;87.80
40257;DHT22;25977;45.462;9.210;2023-11-19T06:16:27;11.70;90.40
40257;DHT22;25977;45.462;9.210;2023-11-19T06:18:53;12.10;91.70
40257;DHT22;25977;45.462;9.210;2023-11-19T06:21:19;12.20;91.90
40257;DHT22;25977;45.462;9.210;2023-11-19T06:23:44;11.90;90.80
40257;DHT22;25977;45.462;9.210;2023-11-19T06:28:36;11.80;91.80
40257;DHT22;25977;45.462;9.210;2023-11-19T06:31:03;11.90;91.70
40257;DHT22;25977;45.462;9.210;2023-11-19T06:33:29;11.90;91.90
40257;DHT22;25977;45.462;9.210;2023-11-19T06:35:54;12.10;89.60
40257;DHT22;25977;45.462;9.210;2023-11-19T06:40:46;12.20;92.20
40257;DHT22;25977;45.462;9.210;2023-11-19T06:43:12;12.10;92.20
40257;DHT22;25977;45.462;9.210;2023-11-19T06:45:39;12.10;92.10
40257;DHT22;25977;45.462;9.210;2023-11-19T06:50:32;11.90;85.40
40257;DHT22;25977;45.462;9.210;2023-11-19T07:00:17;11.90;84.40
40257;DHT22;25977;45.462;9.210;2023-11-19T07:02:44;12.00;85.30
40257;DHT22;25977;45.462;9.210;2023-11-19T07:05:10;12.00;91.20
40257;DHT22;25977;45.462;9.210;2023-11-19T07:10:04;12.30;91.50
40257;DHT22;25977;45.462;9.210;2023-11-19T07:12:31;12.00;91.00
40257;DHT22;25977;45.462;9.210;2023-11-19T07:14:56;11.90;90.20
40257;DHT22;25977;45.462;9.210;2023-11-19T07:19:49;11.90;89.90
40257;DHT22;25977;45.462;9.210;2023-11-19T07:27:08;11.90;89.00
40257;DHT22;25977;45.462;9.210;2023-11-19T07:29:35;12.00;80.10
40257;DHT22;25977;45.462;9.210;2023-11-19T07:32:01;12.40;83.50
40257;DHT22;25977;45.462;9.210;2023-11-19T07:34:30;12.30;89.30
40257;DHT22;25977;45.462;9.210;2023-11-19T07:36:56;12.10;89.00
40257;DHT22;25977;45.462;9.210;2023-11-19T07:39:25;12.30;84.60
40257;DHT22;25977;45.462;9.210;2023-11-19T07:44:16;12.20;90.90
40257;DHT22;25977;45.462;9.210;2023-11-19T07:49:10;11.80;91.40
40257;DHT22;25977;45.462;9.210;2023-11-19T07:54:02;12.30;91.80
40257;DHT22;25977;45.462;9.210;2023-11-19T07:56:29;12.30;91.90
40257;DHT22;25977;45.462;9.210;2023-11-19T07:58:55;12.00;91.90
40257;DHT22;25977;45.462;9.210;2023-11-19T08:03:49;12.30;92.20
40257;DHT22;25977;45.462;9.210;2023-11-19T08:06:14;12.50;92.20
40257;DHT22;25977;45.462;9.210;2023-11-19T08:08:40;12.30;92.10
40257;DHT22;25977;45.462;9.210;2023-11-19T08:11:06;12.90;92.10
40257;DHT22;25977;45.462;9.210;2023-11-19T08:15:58;12.70;91.90
40257;DHT22;25977;45.462;9.210;2023-11-19T08:18:24;12.70;91.80
40257;DHT22;25977;45.462;9.210;2023-11-19T08:20:50;13.10;90.40
40257;DHT22;25977;45.462;9.210;2023-11-19T08:23:19;13.00;84.80
40257;DHT22;25977;45.462;9.210;2023-11-19T08:25:45;13.20;91.10
40257;DHT22;25977;45.462;9.210;2023-11-19T08:28:11;13.20;87.70
40257;DHT22;25977;45.462;9.210;2023-11-19T08:33:02;13.00;90.20
40257;DHT22;25977;45.462;9.210;2023-11-19T08:35:29;13.80;90.10
40257;DHT22;25977;45.462;9.210;2023-11-19T08:40:22;14.10;89.40
40257;DHT22;25977;45.462;9.210;2023-11-19T08:42:48;14.10;89.00
40257;DHT22;25977;45.462;9.210;2023-11-19T08:50:06;14.30;79.80
40257;DHT22;25977;45.462;9.210;2023-11-19T08:52:32;14.60;87.10
40257;DHT22;25977;45.462;9.210;2023-11-19T08:54:58;14.50;86.70
40257;DHT22;25977;45.462;9.210;2023-11-19T08:57:23;14.80;86.90
40257;DHT22;25977;45.462;9.210;2023-11-19T08:59:49;14.40;86.30
40257;DHT22;25977;45.462;9.210;2023-11-19T09:02:14;14.80;86.00
40257;DHT22;25977;45.462;9.210;2023-11-19T09:09:35;15.10;84.60
40257;DHT22;25977;45.462;9.210;2023-11-19T09:14:29;14.90;83.90
40257;DHT22;25977;45.462;9.210;2023-11-19T09:16:56;14.90;83.70
40257;DHT22;25977;45.462;9.210;2023-11-19T09:19:21;15.50;84.40
40257;DHT22;25977;45.462;9.210;2023-11-19T09:24:15;15.00;82.50
40257;DHT22;25977;45.462;9.210;2023-11-19T09:26:40;15.60;82.80
40257;DHT22;25977;45.462;9.210;2023-11-19T09:29:07;15.30;76.30
40257;DHT22;25977;45.462;9.210;2023-11-19T09:31:33;15.40;83.90
40257;DHT22;25977;45.462;9.210;2023-11-19T09:34:00;15.20;84.20
40257;DHT22;25977;45.462;9.210;2023-11-19T09:36:26;15.10;84.70
40257;DHT22;25977;45.462;9.210;2023-11-19T09:38:51;15.50;85.10
40257;DHT22;25977;45.462;9.210;2023-11-19T09:41:17;15.70;85.00
40257;DHT22;25977;45.462;9.210;2023-11-19T09:46:13;15.80;84.70
40257;DHT22;25977;45.462;9.210;2023-11-19T09:48:41;15.60;77.30
40257;DHT22;25977;45.462;9.210;2023-11-19T09:51:11;15.50;81.40
40257;DHT22;25977;45.462;9.210;2023-11-19T09:53:37;15.60;84.20
40257;DHT22;25977;45.462;9.210;2023-11-19T09:56:04;15.80;77.70
40257;DHT22;25977;45.462;9.210;2023-11-19T09:58:31;15.70;77.80
40257;DHT22;25977;45.462;9.210;2023-11-19T10:00:57;15.70;78.10
40257;DHT22;25977;45.462;9.210;2023-11-19T10:03:27;15.60;78.30
40257;DHT22;25977;45.462;9.210;2023-11-19T10:05:55;15.50;84.90
40257;DHT22;25977;45.462;9.210;2023-11-19T10:08:21;15.40;85.10
40257;DHT22;25977;45.462;9.210;2023-11-19T10:10:47;15.20;85.50
40257;DHT22;25977;45.462;9.210;2023-11-19T10:13:13;15.60;86.20
40257;DHT22;25977;45.462;9.210;2023-11-19T10:15:40;15.40;86.10
40257;DHT22;25977;45.462;9.210;2023-11-19T10:18:07;15.70;86.20
40257;DHT22;25977;45.462;9.210;2023-11-19T10:20:36;15.50;85.90
40257;DHT22;25977;45.462;9.210;2023-11-19T10:23:02;15.40;85.90
40257;DHT22;25977;45.462;9.210;2023-11-19T10:25:29;15.60;79.90
40257;DHT22;25977;45.462;9.210;2023-11-19T10:27:56;15.60;85.70
40257;DHT22;25977;45.462;9.210;2023-11-19T10:30:26;15.20;85.60
40257;DHT22;25977;45.462;9.210;2023-11-19T10:33:08;15.90;85.90
40257;DHT22;25977;45.462;9.210;2023-11-19T10:35:35;15.50;79.40
40257;DHT22;25977;45.462;9.210;2023-11-19T10:38:01;15.50;85.00
40257;DHT22;25977;45.462;9.210;2023-11-19T10:40:39;15.60;84.30
40257;DHT22;25977;45.462;9.210;2023-11-19T10:43:08;15.70;82.60
40257;DHT22;25977;45.462;9.210;2023-11-19T10:45:38;15.50;84.50
40257;DHT22;25977;45.462;9.210;2023-11-19T10:48:04;15.50;77.90
40257;DHT22;25977;45.462;9.210;2023-11-19T10:50:34;15.60;77.90
40257;DHT22;25977;45.462;9.210;2023-11-19T10:53:02;15.50;77.60
40257;DHT22;25977;45.462;9.210;2023-11-19T10:55:36;15.40;84.40
40257;DHT22;25977;45.462;9.210;2023-11-19T10:58:04;15.10;83.90
40257;DHT22;25977;45.462;9.210;2023-11-19T11:00:44;15.10;84.20
40257;DHT22;25977;45.462;9.210;2023-11-19T11:03:17;15.80;84.60
40257;DHT22;25977;45.462;9.210;2023-11-19T11:05:43;15.50;84.20
40257;DHT22;25977;45.462;9.210;2023-11-19T11:08:13;15.40;79.50
40257;DHT22;25977;45.462;9.210;2023-11-19T11:10:54;15.90;84.50
40257;DHT22;25977;45.462;9.210;2023-11-19T11:13:22;15.60;77.50
40257;DHT22;25977;45.462;9.210;2023-11-19T11:15:50;15.70;84.70
40257;DHT22;25977;45.462;9.210;2023-11-19T11:18:16;15.50;84.90
40257;DHT22;25977;45.462;9.210;2023-11-19T11:20:44;15.50;84.80
40257;DHT22;25977;45.462;9.210;2023-11-19T11:36:42;15.70;77.30
40257;DHT22;25977;45.462;9.210;2023-11-19T11:39:11;15.30;77.40
40257;DHT22;25977;45.462;9.210;2023-11-19T11:41:36;16.00;84.50
40257;DHT22;25977;45.462;9.210;2023-11-19T11:44:02;15.70;83.90
40257;DHT22;25977;45.462;9.210;2023-11-19T11:49:07;15.50;84.40
40257;DHT22;25977;45.462;9.210;2023-11-19T11:54:11;15.90;84.40
40257;DHT22;25977;45.462;9.210;2023-11-19T11:56:37;15.90;79.20
40257;DHT22;25977;45.462;9.210;2023-11-19T11:59:07;15.80;77.50
40257;DHT22;25977;45.462;9.210;2023-11-19T12:01:33;16.20;84.90
40257;DHT22;25977;45.462;9.210;2023-11-19T12:04:00;16.20;81.80
40257;DHT22;25977;45.462;9.210;2023-11-19T12:06:27;16.10;84.40
40257;DHT22;25977;45.462;9.210;2023-11-19T12:11:19;15.80;84.70
40257;DHT22;25977;45.462;9.210;2023-11-19T12:13:56;16.40;85.20
40257;DHT22;25977;45.462;9.210;2023-11-19T12:16:23;15.90;85.10
40257;DHT22;25977;45.462;9.210;2023-11-19T12:18:49;16.40;84.50
40257;DHT22;25977;45.462;9.210;2023-11-19T12:21:28;16.40;79.20
40257;DHT22;25977;45.462;9.210;2023-11-19T12:23:55;15.90;86.30
40257;DHT22;25977;45.462;9.210;2023-11-19T12:26:33;16.00;86.40
40257;DHT22;25977;45.462;9.210;2023-11-19T12:33:55;15.90;85.90
40257;DHT22;25977;45.462;9.210;2023-11-19T12:36:21;15.90;85.30
40257;DHT22;25977;45.462;9.210;2023-11-19T12:38:47;16.30;85.10
40257;DHT22;25977;45.462;9.210;2023-11-19T12:43:43;16.30;85.40
40257;DHT22;25977;45.462;9.210;2023-11-19T12:46:19;16.20;84.60
40257;DHT22;25977;45.462;9.210;2023-11-19T12:48:48;16.30;84.90
40257;DHT22;25977;45.462;9.210;2023-11-19T12:51:17;16.10;77.70
40257;DHT22;25977;45.462;9.210;2023-11-19T12:53:52;16.20;84.60
40257;DHT22;25977;45.462;9.210;2023-11-19T12:56:23;16.50;84.60
40257;DHT22;25977;45.462;9.210;2023-11-19T12:58:50;16.50;84.40
40257;DHT22;25977;45.462;9.210;2023-11-19T13:01:20;16.30;80.90
40257;DHT22;25977;45.462;9.210;2023-11-19T13:03:46;16.10;77.20
40257;DHT22;25977;45.462;9.210;2023-11-19T13:11:07;16.30;84.30
40257;DHT22;25977;45.462;9.210;2023-11-19T13:13:53;16.20;84.00
40257;DHT22;25977;45.462;9.210;2023-11-19T13:16:19;16.40;84.10
40257;DHT22;25977;45.462;9.210;2023-11-19T13:18:45;16.40;78.10
40257;DHT22;25977;45.462;9.210;2023-11-19T13:21:11;16.30;84.10
40257;DHT22;25977;45.462;9.210;2023-11-19T13:23:36;16.20;77.40
40257;DHT22;25977;45.462;9.210;2023-11-19T13:26:02;16.20;78.30
40257;DHT22;25977;45.462;9.210;2023-11-19T13:28:29;16.20;78.10
40257;DHT22;25977;45.462;9.210;2023-11-19T13:30:55;16.50;84.50
40257;DHT22;25977;45.462;9.210;2023-11-19T13:35:46;15.90;84.10
40257;DHT22;25977;45.462;9.210;2023-11-19T13:38:12;16.20;81.20
40257;DHT22;25977;45.462;9.210;2023-11-19T13:40:38;16.60;84.20
40257;DHT22;25977;45.462;9.210;2023-11-19T13:43:04;16.20;77.60
40257;DHT22;25977;45.462;9.210;2023-11-19T13:45:30;16.30;77.50
40257;DHT22;25977;45.462;9.210;2023-11-19T13:47:56;16.20;77.60
40257;DHT22;25977;45.462;9.210;2023-11-19T13:50:21;16.20;77.80
40257;DHT22;25977;45.462;9.210;2023-11-19T13:52:48;16.20;77.60
40257;DHT22;25977;45.462;9.210;2023-11-19T13:55:14;16.20;77.40
40257;DHT22;25977;45.462;9.210;2023-11-19T13:57:41;16.50;83.80
40257;DHT22;25977;45.462;9.210;2023-11-19T14:00:09;16.10;77.80
40257;DHT22;25977;45.462;9.210;2023-11-19T14:02:42;16.20;77.80
40257;DHT22;25977;45.462;9.210;2023-11-19T14:05:09;16.20;77.90
40257;DHT22;25977;45.462;9.210;2023-11-19T14:07:34;16.50;78.00
40257;DHT22;25977;45.462;9.210;2023-11-19T14:10:00;16.20;78.00
40257;DHT22;25977;45.462;9.210;2023-11-19T14:12:26;16.40;84.30
40257;DHT22;25977;45.462;9.210;2023-11-19T14:14:52;15.80;84.10
40257;DHT22;25977;45.462;9.210;2023-11-19T14:17:17;15.70;84.50
40257;DHT22;25977;45.462;9.210;2023-11-19T14:19:44;15.90;84.70
40257;DHT22;25977;45.462;9.210;2023-11-19T14:24:37;15.90;84.80
40257;DHT22;25977;45.462;9.210;2023-11-19T14:27:03;16.20;85.00
40257;DHT22;25977;45.462;9.210;2023-11-19T14:29:29;16.10;82.70
40257;DHT22;25977;45.462;9.210;2023-11-19T14:34:24;15.60;85.30
40257;DHT22;25977;45.462;9.210;2023-11-19T14:36:51;16.10;85.10
40257;DHT22;25977;45.462;9.210;2023-11-19T14:39:17;16.00;85.90
40257;DHT22;25977;45.462;9.210;2023-11-19T14:41:43;15.60;85.80
40257;DHT22;25977;45.462;9.210;2023-11-19T14:46:38;16.10;86.50
40257;DHT22;25977;45.462;9.210;2023-11-19T14:49:04;15.80;86.40
40257;DHT22;25977;45.462;9.210;2023-11-19T14:51:30;15.40;86.10
40257;DHT22;25977;45.462;9.210;2023-11-19T14:56:23;15.40;86.70
40257;DHT22;25977;45.462;9.210;2023-11-19T14:58:48;15.80;87.00
40257;DHT22;25977;45.462;9.210;2023-11-19T15:01:16;15.90;87.00
40257;DHT22;25977;45.462;9.210;2023-11-19T15:03:42;16.00;83.20
40257;DHT22;25977;45.462;9.210;2023-11-19T15:06:08;15.70;83.40
40257;DHT22;25977;45.462;9.210;2023-11-19T15:08:34;15.80;87.70
40257;DHT22;25977;45.462;9.210;2023-11-19T15:10:59;15.80;81.10
40257;DHT22;25977;45.462;9.210;2023-11-19T15:13:27;15.50;87.20
40257;DHT22;25977;45.462;9.210;2023-11-19T15:15:53;15.40;87.50
40257;DHT22;25977;45.462;9.210;2023-11-19T15:18:20;15.20;88.10
40257;DHT22;25977;45.462;9.210;2023-11-19T15:20:46;15.50;81.60
40257;DHT22;25977;45.462;9.210;2023-11-19T15:23:15;15.30;88.10
40257;DHT22;25977;45.462;9.210;2023-11-19T15:25:42;15.10;88.50
40257;DHT22;25977;45.462;9.210;2023-11-19T15:28:08;15.50;82.00
40257;DHT22;25977;45.462;9.210;2023-11-19T15:30:34;15.40;82.10
40257;DHT22;25977;45.462;9.210;2023-11-19T15:33:01;15.40;82.30
40257;DHT22;25977;45.462;9.210;2023-11-19T15:35:26;15.40;82.40
40257;DHT22;25977;45.462;9.210;2023-11-19T15:37:52;15.30;82.60
40257;DHT22;25977;45.462;9.210;2023-11-19T15:40:18;15.30;82.70
40257;DHT22;25977;45.462;9.210;2023-11-19T15:42:45;15.40;82.80
40257;DHT22;25977;45.462;9.210;2023-11-19T15:45:12;14.90;88.90
40257;DHT22;25977;45.462;9.210;2023-11-19T15:47:38;15.10;89.30
40257;DHT22;25977;45.462;9.210;2023-11-19T15:50:04;15.20;82.90
40257;DHT22;25977;45.462;9.210;2023-11-19T15:52:30;15.20;83.00
40257;DHT22;25977;45.462;9.210;2023-11-19T15:54:57;14.90;89.20
40257;DHT22;25977;45.462;9.210;2023-11-19T15:57:23;15.20;83.10
40257;DHT22;25977;45.462;9.210;2023-11-19T15:59:49;15.20;83.30
40257;DHT22;25977;45.462;9.210;2023-11-19T16:02:15;14.80;89.70
40257;DHT22;25977;45.462;9.210;2023-11-19T16:04:41;14.70;85.00
40257;DHT22;25977;45.462;9.210;2023-11-19T16:09:33;15.30;90.10
40257;DHT22;25977;45.462;9.210;2023-11-19T16:11:59;14.80;90.00
40257;DHT22;25977;45.462;9.210;2023-11-19T16:14:24;15.30;90.30
40257;DHT22;25977;45.462;9.210;2023-11-19T16:19:18;15.00;90.30
40257;DHT22;25977;45.462;9.210;2023-11-19T16:21:43;15.20;90.50
40257;DHT22;25977;45.462;9.210;2023-11-19T16:24:09;15.20;90.40
40257;DHT22;25977;45.462;9.210;2023-11-19T16:26:35;15.10;90.50
40257;DHT22;25977;45.462;9.210;2023-11-19T16:29:04;14.60;90.10
40257;DHT22;25977;45.462;9.210;2023-11-19T16:31:30;15.10;83.90
40257;DHT22;25977;45.462;9.210;2023-11-19T16:33:56;14.80;83.80
40257;DHT22;25977;45.462;9.210;2023-11-19T16:36:22;14.70;83.80
40257;DHT22;25977;45.462;9.210;2023-11-19T16:38:48;14.80;84.00
40257;DHT22;25977;45.462;9.210;2023-11-19T16:41:18;14.60;83.60
40257;DHT22;25977;45.462;9.210;2023-11-19T16:43:46;14.50;90.60
40257;DHT22;25977;45.462;9.210;2023-11-19T16:46:12;14.60;90.40
40257;DHT22;25977;45.462;9.210;2023-11-19T16:48:38;14.90;90.70
40257;DHT22;25977;45.462;9.210;2023-11-19T16:51:12;14.70;84.20
40257;DHT22;25977;45.462;9.210;2023-11-19T16:53:48;14.70;84.30
40257;DHT22;25977;45.462;9.210;2023-11-19T16:56:15;14.70;90.60
40257;DHT22;25977;45.462;9.210;2023-11-19T16:58:41;14.60;90.80
40257;DHT22;25977;45.462;9.210;2023-11-19T17:01:10;14.60;90.90
40257;DHT22;25977;45.462;9.210;2023-11-19T17:03:37;14.50;90.90
40257;DHT22;25977;45.462;9.210;2023-11-19T17:06:03;14.80;85.40
40257;DHT22;25977;45.462;9.210;2023-11-19T17:08:29;14.60;91.10
40257;DHT22;25977;45.462;9.210;2023-11-19T17:11:00;14.60;91.00
40257;DHT22;25977;45.462;9.210;2023-11-19T17:13:26;14.50;90.90
40257;DHT22;25977;45.462;9.210;2023-11-19T17:23:10;14.50;90.80
40257;DHT22;25977;45.462;9.210;2023-11-19T17:25:36;14.60;89.50
40257;DHT22;25977;45.462;9.210;2023-11-19T17:28:04;14.50;84.10
40257;DHT22;25977;45.462;9.210;2023-11-19T17:30:33;14.50;84.00
40257;DHT22;25977;45.462;9.210;2023-11-19T17:32:59;14.20;90.30
40257;DHT22;25977;45.462;9.210;2023-11-19T17:35:25;14.10;90.40
40257;DHT22;25977;45.462;9.210;2023-11-19T17:37:51;14.40;90.60
40257;DHT22;25977;45.462;9.210;2023-11-19T17:40:16;14.70;90.70
40257;DHT22;25977;45.462;9.210;2023-11-19T17:42:42;14.50;83.70
40257;DHT22;25977;45.462;9.210;2023-11-19T17:45:09;14.40;83.80
40257;DHT22;25977;45.462;9.210;2023-11-19T17:47:35;14.50;90.80
40257;DHT22;25977;45.462;9.210;2023-11-19T17:50:01;14.70;88.00
40257;DHT22;25977;45.462;9.210;2023-11-19T17:54:54;14.20;89.60
40257;DHT22;25977;45.462;9.210;2023-11-19T17:57:20;14.50;90.90
40257;DHT22;25977;45.462;9.210;2023-11-19T18:02:15;14.20;84.30
40257;DHT22;25977;45.462;9.210;2023-11-19T18:04:47;14.00;90.50
40257;DHT22;25977;45.462;9.210;2023-11-19T18:09:40;14.40;91.10
40257;DHT22;25977;45.462;9.210;2023-11-19T18:12:06;14.60;91.20
40257;DHT22;25977;45.462;9.210;2023-11-19T18:14:32;14.30;90.90
40257;DHT22;25977;45.462;9.210;2023-11-19T18:16:58;13.90;91.20
40257;DHT22;25977;45.462;9.210;2023-11-19T18:19:23;14.50;91.40
40257;DHT22;25977;45.462;9.210;2023-11-19T18:31:36;13.90;91.50
40257;DHT22;25977;45.462;9.210;2023-11-19T18:36:36;14.40;87.20
40257;DHT22;25977;45.462;9.210;2023-11-19T18:39:06;14.20;85.50
40257;DHT22;25977;45.462;9.210;2023-11-19T18:41:38;14.40;90.80
40257;DHT22;25977;45.462;9.210;2023-11-19T18:46:33;14.10;86.70
40257;DHT22;25977;45.462;9.210;2023-11-19T18:48:58;14.50;91.80
40257;DHT22;25977;45.462;9.210;2023-11-19T18:53:51;14.30;91.60
40257;DHT22;25977;45.462;9.210;2023-11-19T18:56:17;13.90;90.90
40257;DHT22;25977;45.462;9.210;2023-11-19T18:58:43;14.10;91.20
40257;DHT22;25977;45.462;9.210;2023-11-19T19:01:09;14.10;86.20
40257;DHT22;25977;45.462;9.210;2023-11-19T19:03:35;14.10;86.20
40257;DHT22;25977;45.462;9.210;2023-11-19T19:06:02;13.80;91.20
40257;DHT22;25977;45.462;9.210;2023-11-19T19:10:58;14.10;91.30
40257;DHT22;25977;45.462;9.210;2023-11-19T19:13:24;14.30;86.30